Charadai, Argentina
Current Conditions -  °F | °C
As of 5:00 PM on Friday 21 Nov 2014 (Local Time) from SARE Reporting Station
Broken Clouds Broken Clouds  
Wind Chill: 72°   Ceiling: 10000
Heat Index: 72°   Visibility: 6mi
Dew Point: 64°   Wind: 9mph
Humidity: 78%   Direction: 230°SW
Pressure: 29.8"   Gusts: NA
Location:  27.81°S, 59.94°W
Report Text: SARE 212000Z 23008KT 9999 SCT045 BKN100 22/18 Q1009
Loading
Personal Weather Stations






























Interactive Weather Map New forecast layout! Learn more

10-Day Weather Forecast

Advertisements
Track Severe Weather on mobile